Time;durP1;ratioP1;P1;durP2;ratioP2;P2;SDS_P1;SDS_P2;PMS_P1;PMS_P2;Temp;Humidity;BMP_temperature;BMP_pressure;BME280_temperature;BME280_humidity;BME280_pressure;Samples;Min_cycle;Max_cycle;Signal;HPM_P1;HPM_P2
2021/12/27 00:00:28;;;;;;;8.38;5.57;;;2.40;85.60;;;1.06;81.79;95726.91;4020198;34;20310;-85
2021/12/27 00:02:59;;;;;;;8.10;5.68;;;2.40;85.80;;;1.05;81.18;95736.84;4042863;34;20293;-85
2021/12/27 00:05:26;;;;;;;9.75;5.70;;;2.40;85.60;;;1.06;81.12;95748.47;4042707;34;20171;-84
2021/12/27 00:07:54;;;;;;;7.57;5.15;;;2.40;85.90;;;1.06;81.29;95740.41;4021710;34;20099;-85
2021/12/27 00:10:22;;;;;;;10.98;6.25;;;2.40;85.70;;;1.06;81.24;95745.78;4022299;34;20161;-84
2021/12/27 00:12:49;;;;;;;8.02;5.20;;;2.40;85.70;;;1.05;81.13;95738.75;4022291;34;19985;-85
2021/12/27 00:15:15;;;;;;;7.63;5.35;;;2.40;85.60;;;1.04;81.38;95743.28;4021107;34;20272;-85
2021/12/27 00:17:43;;;;;;;8.35;5.78;;;2.40;85.70;;;1.06;81.42;95741.19;4021881;34;20031;-85
2021/12/27 00:20:11;;;;;;;8.52;5.50;;;2.40;85.70;;;1.06;81.39;95741.19;4044033;34;20218;-85
2021/12/27 00:22:38;;;;;;;9.07;5.70;;;2.40;85.80;;;1.05;81.59;95750.34;4042840;34;20338;-85
2021/12/27 00:25:05;;;;;;;7.45;5.15;;;2.40;85.90;;;1.07;81.59;95742.03;4022030;34;20324;-85
2021/12/27 00:27:32;;;;;;;7.28;4.97;;;2.40;85.80;;;1.07;81.19;95744.75;4020261;34;20291;-85
2021/12/27 00:29:58;;;;;;;7.90;5.63;;;2.40;85.90;;;1.05;81.43;95742.25;4019942;34;20008;-84
2021/12/27 00:32:24;;;;;;;10.88;5.95;;;2.40;86.00;;;1.06;81.44;95748.47;4020456;34;20004;-85
2021/12/27 00:34:51;;;;;;;8.85;5.57;;;2.40;85.80;;;1.06;81.63;95749.28;4000946;34;20308;-85
2021/12/27 00:37:17;;;;;;;7.70;5.10;;;2.40;85.90;;;1.06;81.45;95756.56;4025464;34;20559;-84
2021/12/27 00:39:43;;;;;;;7.55;5.15;;;2.40;86.00;;;1.07;81.33;95747.44;4046610;34;20032;-85
2021/12/27 00:42:10;;;;;;;9.32;5.43;;;2.40;85.80;;;1.05;81.63;95752.22;4050746;34;20300;-84
2021/12/27 00:44:36;;;;;;;7.95;5.05;;;2.40;85.80;;;1.07;81.71;95760.91;4026611;34;20298;-84
2021/12/27 00:47:03;;;;;;;6.10;4.43;;;2.40;85.70;;;1.06;81.71;95756.56;4031676;34;20015;-84
2021/12/27 00:49:29;;;;;;;8.23;4.88;;;2.40;85.90;;;1.07;81.74;95755.53;4072741;34;20004;-84
2021/12/27 00:51:55;;;;;;;7.43;5.30;;;2.40;86.10;;;1.06;81.46;95765.47;4002622;34;20011;-84
2021/12/27 00:54:22;;;;;;;10.30;5.28;;;2.40;85.90;;;1.06;81.21;95765.47;4043002;34;20677;-84
2021/12/27 00:56:48;;;;;;;7.63;4.70;;;2.40;85.80;;;1.06;81.80;95761.97;4087638;34;20325;-84
2021/12/27 00:59:15;;;;;;;8.25;5.50;;;2.40;85.70;;;1.06;81.54;95762.78;3979246;34;20026;-84
2021/12/27 01:01:41;;;;;;;7.70;4.82;;;2.40;85.80;;;1.07;81.61;95766.31;4022147;34;20007;-84
2021/12/27 01:04:07;;;;;;;6.68;5.05;;;2.40;85.80;;;1.08;81.63;95765.25;4002656;34;20342;-85
2021/12/27 01:06:34;;;;;;;6.40;4.40;;;2.40;85.80;;;1.08;81.25;95767.97;4046345;34;20548;-84
2021/12/27 01:09:00;;;;;;;8.40;5.22;;;2.40;85.80;;;1.06;81.27;95764.66;4045607;34;20079;-84
2021/12/27 01:11:40;;;;;;;6.90;4.75;;;2.40;85.80;;;1.08;81.44;95759.88;4044433;34;20415;-84
2021/12/27 01:14:16;;;;;;;7.70;4.57;;;2.40;86.50;;;1.06;81.30;95759.25;4088291;34;20211;-84
2021/12/27 01:16:44;;;;;;;;;;;2.40;85.70;;;1.07;81.54;95752.81;4020236;34;20013;-84
2021/12/27 01:19:10;;;;;;;6.97;4.25;;;2.40;85.70;;;1.07;81.71;95747.44;4000273;34;20191;-84
2021/12/27 01:21:37;;;;;;;6.60;4.63;;;2.40;85.70;;;1.07;81.74;95742.84;3956034;34;20610;-84
2021/12/27 01:24:04;;;;;;;7.55;5.03;;;2.40;85.80;;;1.07;81.30;95728.56;3976615;34;20005;-84
2021/12/27 01:26:31;;;;;;;6.85;5.00;;;2.40;85.70;;;1.07;81.58;95725.88;3976391;34;20005;-84
2021/12/27 01:28:58;;;;;;;8.52;5.63;;;2.40;85.80;;;1.07;81.76;95725.88;3995897;34;20305;-84
2021/12/27 01:31:24;;;;;;;6.60;4.53;;;2.40;85.70;;;1.07;81.53;95726.69;3997555;34;20085;-84
2021/12/27 01:33:51;;;;;;;7.32;4.63;;;2.40;85.70;;;1.06;81.21;95719.63;3999634;34;20333;-84
2021/12/27 01:36:17;;;;;;;6.30;4.15;;;2.40;85.80;;;1.06;81.35;95714.25;4018313;34;20601;-84
2021/12/27 01:38:44;;;;;;;7.32;5.05;;;2.40;85.70;;;1.05;81.25;95707.22;4019515;34;20028;-85
2021/12/27 01:41:13;;;;;;;7.82;5.05;;;2.40;85.70;;;1.07;81.54;95707.00;4012572;34;20367;-84
2021/12/27 01:43:41;;;;;;;7.72;4.75;;;2.40;85.80;;;1.07;81.65;95698.91;4023672;34;20283;-84
2021/12/27 01:46:11;;;;;;;6.15;4.43;;;2.40;85.80;;;1.08;81.28;95703.25;4001481;34;20012;-84
2021/12/27 01:48:41;;;;;;;6.80;4.50;;;2.40;85.80;;;1.06;81.56;95697.25;4057786;34;20292;-84
2021/12/27 01:51:10;;;;;;;6.15;4.13;;;2.40;85.60;;;1.06;81.39;95702.66;4041349;34;20012;-85
2021/12/27 01:53:39;;;;;;;8.05;5.28;;;2.40;85.70;;;1.07;81.26;95712.41;4008830;34;20569;-84
2021/12/27 01:56:07;;;;;;;7.00;4.35;;;2.40;85.70;;;1.07;81.59;95715.91;4028639;34;20371;-84
2021/12/27 01:58:33;;;;;;;6.07;4.50;;;2.40;85.70;;;1.09;81.38;95720.25;4006766;34;20011;-84
2021/12/27 02:01:01;;;;;;;6.18;4.13;;;2.40;85.70;;;1.08;81.56;95711.34;4043784;34;20318;-84
2021/12/27 02:03:30;;;;;;;7.00;4.22;;;2.40;86.10;;;1.09;81.60;95717.56;4043444;34;20307;-84
2021/12/27 02:05:57;;;;;;;6.18;4.30;;;2.40;85.90;;;1.07;81.54;95720.47;4027927;34;20320;-84
2021/12/27 02:08:24;;;;;;;7.35;5.15;;;2.40;85.60;;;1.08;81.45;95724.81;4037785;34;20036;-84
2021/12/27 02:10:50;;;;;;;5.65;4.22;;;2.40;85.80;;;1.08;81.36;95732.91;4054777;34;19996;-84
2021/12/27 02:13:17;;;;;;;5.72;4.28;;;2.40;85.90;;;1.08;81.73;95735.59;4051308;34;20605;-85
2021/12/27 02:15:44;;;;;;;6.30;4.10;;;2.40;85.80;;;1.08;81.78;95722.13;4041263;34;20011;-84
2021/12/27 02:18:10;;;;;;;6.85;4.55;;;2.40;85.90;;;1.09;81.85;95734.56;4043755;34;20016;-84
2021/12/27 02:20:39;;;;;;;7.10;4.10;;;2.40;86.00;;;1.07;81.72;95728.56;4063780;34;20279;-84
2021/12/27 02:23:15;;;;;;;8.63;4.07;;;2.40;85.90;;;1.07;81.51;95737.47;4041469;34;19997;-84
2021/12/27 02:25:47;;;;;;;7.50;4.65;;;2.50;86.00;;;1.09;81.72;95733.72;4057834;34;20079;-83
2021/12/27 02:28:14;;;;;;;6.68;4.80;;;2.40;85.90;;;1.07;81.45;95732.06;4039863;34;20016;-84
2021/12/27 02:30:41;;;;;;;6.75;4.38;;;2.40;85.90;;;1.08;81.25;95722.13;4020769;34;20344;-84
2021/12/27 02:33:09;;;;;;;5.68;3.78;;;2.40;85.70;;;1.07;81.30;95721.28;4062028;34;20287;-84
2021/12/27 02:35:56;;;;;;;5.97;4.18;;;2.40;85.80;;;1.09;81.31;95722.94;3999767;34;20326;-84
2021/12/27 02:38:27;;;;;;;6.30;4.05;;;2.40;85.80;;;1.09;81.59;95723.78;3976295;34;20310;-83
2021/12/27 02:40:53;;;;;;;6.45;4.45;;;2.40;85.80;;;1.09;81.39;95728.34;3996274;34;20034;-84
2021/12/27 02:43:23;;;;;;;6.07;3.95;;;2.50;85.90;;;1.10;81.45;95725.41;3995897;34;20367;-84
2021/12/27 02:46:00;;;;;;;6.28;4.55;;;2.40;85.90;;;1.09;81.28;95713.00;3995674;34;20033;-84
2021/12/27 02:48:42;;;;;;;6.10;4.20;;;2.40;85.80;;;1.09;81.31;95718.41;4065501;34;20339;-84
2021/12/27 02:51:08;;;;;;;6.50;4.22;;;2.40;86.00;;;1.10;81.70;95711.13;4021533;34;20083;-83
2021/12/27 02:53:34;;;;;;;5.78;4.15;;;2.40;86.30;;;1.10;82.16;95711.13;4020581;34;20292;-83
2021/12/27 02:56:02;;;;;;;6.15;4.22;;;2.40;86.20;;;1.08;82.03;95711.34;4040512;34;20293;-84
2021/12/27 02:58:28;;;;;;;6.15;4.03;;;2.50;86.30;;;1.09;82.01;95713.00;3998324;34;20000;-83
2021/12/27 03:01:08;;;;;;;5.57;4.07;;;2.40;85.90;;;1.09;81.41;95709.47;3997422;34;20564;-84
2021/12/27 03:03:35;;;;;;;7.95;4.53;;;2.40;86.00;;;1.10;81.86;95713.81;4040150;34;20312;-84
2021/12/27 03:06:01;;;;;;;8.45;5.20;;;2.50;86.10;;;1.09;81.89;95713.00;4041099;34;20000;-83
2021/12/27 03:08:28;;;;;;;8.25;4.95;;;2.40;86.10;;;1.09;82.01;95707.59;4036890;34;20317;-83
2021/12/27 03:10:57;;;;;;;7.43;4.78;;;2.40;86.40;;;1.09;82.38;95696.81;4014497;34;20032;-83
2021/12/27 03:13:33;;;;;;;6.35;4.53;;;2.40;86.60;;;1.10;81.83;95700.34;4010615;34;20366;-84
2021/12/27 03:16:14;;;;;;;6.97;4.85;;;2.40;86.40;;;1.10;82.50;95698.44;4011785;34;20051;-84
2021/12/27 03:18:48;;;;;;;6.38;4.15;;;2.40;86.70;;;1.10;82.33;95697.63;4012364;34;20528;-83
2021/12/27 03:21:15;;;;;;;5.65;4.35;;;2.50;86.60;;;1.09;82.01;95702.22;4012751;34;20275;-83
2021/12/27 03:23:42;;;;;;;5.93;4.65;;;2.50;86.60;;;1.09;82.55;95691.44;4014556;34;20252;-83
2021/12/27 03:26:09;;;;;;;5.50;3.65;;;2.50;86.90;;;1.10;82.49;95692.25;4015843;34;20402;-83
2021/12/27 03:28:36;;;;;;;6.22;4.07;;;2.40;86.80;;;1.09;82.29;95690.59;4035447;34;20398;-83
2021/12/27 03:31:02;;;;;;;6.63;4.38;;;2.40;86.70;;;1.10;82.57;95693.06;3974775;34;20470;-83
2021/12/27 03:33:29;;;;;;;5.70;3.78;;;2.50;86.80;;;1.09;82.62;95680.66;3977381;34;20005;-84
2021/12/27 03:36:04;;;;;;;7.13;4.28;;;2.40;86.80;;;1.08;82.72;95684.41;4021186;34;20004;-84
2021/12/27 03:38:53;;;;;;;5.97;3.57;;;2.40;86.80;;;1.09;82.07;95696.81;4046686;34;20076;-84
2021/12/27 03:41:23;;;;;;;5.65;3.95;;;2.40;86.30;;;1.10;82.05;95695.75;4001975;34;20003;-83
2021/12/27 03:43:49;;;;;;;6.88;4.53;;;2.50;86.40;;;1.11;82.12;95689.31;4021368;34;19996;-83
2021/12/27 03:46:16;;;;;;;5.78;4.13;;;2.40;86.60;;;1.10;82.22;95690.34;4020535;34;20408;-83
2021/12/27 03:48:42;;;;;;;5.80;3.83;;;2.50;86.70;;;1.11;82.02;95683.91;4021484;34;20012;-83
2021/12/27 03:51:09;;;;;;;7.15;4.90;;;2.50;86.50;;;1.08;82.26;95695.19;4021243;34;20299;-84
2021/12/27 03:53:35;;;;;;;6.03;4.32;;;2.40;86.40;;;1.09;82.05;95690.59;4020459;34;19992;-84
2021/12/27 03:56:02;;;;;;;8.13;5.50;;;2.40;86.60;;;1.09;82.23;95690.59;3977199;34;20008;-83
2021/12/27 03:58:33;;;;;;;7.15;4.72;;;2.40;86.50;;;1.09;82.43;95691.44;3978032;34;20680;-83
2021/12/27 04:01:14;;;;;;;6.32;4.32;;;2.40;86.50;;;1.09;82.09;95691.44;4000673;34;20550;-83
2021/12/27 04:03:59;;;;;;;7.43;4.50;;;2.40;86.20;;;1.11;81.41;95694.72;4014894;34;20036;-83
2021/12/27 04:06:44;;;;;;;5.78;3.88;;;2.40;86.00;;;1.10;81.61;95693.06;4009361;34;20264;-83
2021/12/27 04:09:29;;;;;;;5.78;4.13;;;2.40;86.10;;;1.11;81.81;95693.91;4070966;34;20588;-83
2021/12/27 04:12:14;;;;;;;6.55;4.72;;;2.40;85.90;;;1.10;81.66;95687.66;4070903;34;20076;-83
2021/12/27 04:14:40;;;;;;;5.85;3.97;;;2.50;86.10;;;1.10;82.04;95687.66;4001872;34;20083;-84
2021/12/27 04:17:07;;;;;;;6.43;4.22;;;2.50;86.20;;;1.09;81.79;95688.75;4024134;34;20374;-83
2021/12/27 04:19:34;;;;;;;6.10;4.25;;;2.50;86.20;;;1.09;81.69;95683.34;4050350;34;20235;-83
2021/12/27 04:22:00;;;;;;;6.07;4.40;;;2.50;86.40;;;1.11;81.76;95683.91;3999188;34;20324;-83
2021/12/27 04:24:26;;;;;;;6.43;4.15;;;2.50;86.40;;;1.10;81.56;95682.28;3998020;34;20079;-84
2021/12/27 04:26:53;;;;;;;4.78;3.58;;;2.40;86.00;;;1.09;81.72;95688.75;4047090;34;20366;-83
2021/12/27 04:29:19;;;;;;;5.13;3.63;;;2.50;85.90;;;1.09;81.38;95680.66;4044948;34;20066;-84
2021/12/27 04:31:45;;;;;;;5.90;4.20;;;2.50;85.90;;;1.10;81.47;95676.06;4001438;34;20004;-84
2021/12/27 04:34:12;;;;;;;5.32;3.80;;;2.50;86.00;;;1.10;82.04;95681.47;4044285;34;20472;-84
2021/12/27 04:36:40;;;;;;;7.05;4.00;;;2.50;86.10;;;1.10;81.54;95676.88;4002310;34;20417;-84
2021/12/27 04:39:08;;;;;;;5.53;3.80;;;2.50;86.10;;;1.10;81.33;95670.69;4022310;34;20302;-84
2021/12/27 04:41:35;;;;;;;5.97;4.28;;;2.40;85.80;;;1.11;81.47;95666.94;4023135;34;19980;-84
2021/12/27 04:44:01;;;;;;;6.05;3.80;;;2.50;85.90;;;1.11;81.38;95675.03;4044445;34;20001;-84
2021/12/27 04:46:27;;;;;;;6.05;3.90;;;2.50;85.90;;;1.10;81.48;95676.88;4000471;34;20326;-84
2021/12/27 04:48:54;;;;;;;6.07;4.05;;;2.50;85.80;;;1.09;81.39;95675.25;4022385;34;20287;-83
2021/12/27 04:51:20;;;;;;;5.38;3.72;;;2.40;85.70;;;1.11;81.09;95670.44;4001671;34;20016;-84
2021/12/27 04:53:49;;;;;;;5.28;3.85;;;2.50;85.80;;;1.10;81.55;95666.09;4043795;34;20341;-84
2021/12/27 04:56:15;;;;;;;6.03;3.95;;;2.40;85.80;;;1.12;81.37;95673.97;4001837;34;20000;-84
2021/12/27 04:58:44;;;;;;;5.50;4.00;;;2.50;85.90;;;1.12;81.51;95668.59;4017539;34;20300;-84
2021/12/27 05:01:11;;;;;;;5.13;3.47;;;2.50;85.90;;;1.12;81.57;95665.91;4040977;34;20008;-85
2021/12/27 05:03:37;;;;;;;5.90;3.92;;;2.50;85.80;;;1.12;81.40;95674.78;4043272;34;20064;-84
2021/12/27 05:06:06;;;;;;;6.70;3.88;;;2.50;86.00;;;1.10;81.65;95676.88;4023878;34;20290;-84
2021/12/27 05:08:32;;;;;;;5.50;3.58;;;2.50;86.00;;;1.12;81.30;95682.06;4059415;34;19993;-84
2021/12/27 05:10:58;;;;;;;5.03;3.63;;;2.50;85.90;;;1.11;81.65;95675.84;4004488;34;20000;-84
2021/12/27 05:13:24;;;;;;;5.18;3.80;;;2.50;85.90;;;1.12;81.28;95680.19;4004039;34;20626;-84
2021/12/27 05:15:51;;;;;;;6.90;4.03;;;2.50;85.90;;;1.12;81.36;95685.56;3981275;34;20290;-84
2021/12/27 05:18:18;;;;;;;4.57;3.47;;;2.50;85.90;;;1.13;81.49;95692.63;3980272;34;20008;-85
2021/12/27 05:20:45;;;;;;;6.57;3.92;;;2.50;85.90;;;1.12;81.56;95690.97;3979057;34;20350;-85
2021/12/27 05:23:11;;;;;;;5.70;3.83;;;2.50;85.90;;;1.11;81.30;95693.91;3974353;34;20278;-83
2021/12/27 05:25:37;;;;;;;6.43;4.20;;;2.50;85.90;;;1.11;81.79;95678.53;4017713;34;20063;-83
2021/12/27 05:28:04;;;;;;;5.70;3.83;;;2.50;86.00;;;1.11;81.43;95678.53;4065333;34;20301;-83
2021/12/27 05:30:30;;;;;;;5.35;3.50;;;2.50;86.00;;;1.13;81.48;95681.84;3978790;34;20206;-83
2021/12/27 05:32:56;;;;;;;5.15;3.90;;;2.50;85.80;;;1.13;81.51;95671.06;4043020;34;20347;-84
2021/12/27 05:35:22;;;;;;;5.70;3.78;;;2.50;85.90;;;1.12;81.36;95674.78;4016095;34;20189;-83
2021/12/27 05:37:49;;;;;;;6.47;4.37;;;2.50;85.90;;;1.11;81.49;95673.13;4016818;34;20629;-84
2021/12/27 05:40:20;;;;;;;5.35;3.20;;;2.50;85.90;;;1.13;81.65;95681.03;3995152;34;20100;-85
2021/12/27 05:42:46;;;;;;;5.32;3.45;;;2.50;85.90;;;1.12;81.24;95671.28;4038777;34;20064;-84
2021/12/27 05:45:12;;;;;;;7.15;3.60;;;2.50;85.90;;;1.12;81.34;95664.00;4037244;34;20023;-84
2021/12/27 05:47:39;;;;;;;6.20;3.65;;;2.50;85.90;;;1.13;81.41;95657.56;4038512;34;20279;-84
2021/12/27 05:50:06;;;;;;;5.85;3.95;;;2.50;85.80;;;1.11;81.40;95651.56;3994636;34;20274;-84
2021/12/27 05:52:32;;;;;;;5.90;4.20;;;2.50;85.70;;;1.12;81.44;95653.22;4016011;34;19993;-84
2021/12/27 05:54:59;;;;;;;5.25;3.65;;;2.50;85.80;;;1.13;81.16;95648.66;4013972;34;20272;-84
2021/12/27 05:57:25;;;;;;;4.93;3.22;;;2.50;85.70;;;1.11;81.38;95635.41;4035799;34;20314;-84
2021/12/27 05:59:51;;;;;;;6.88;3.90;;;2.50;85.70;;;1.12;81.04;95644.31;4014136;34;20208;-84
2021/12/27 06:02:17;;;;;;;5.60;3.75;;;2.50;85.70;;;1.11;81.49;95648.88;4035243;34;20326;-84
2021/12/27 06:04:44;;;;;;;5.75;3.72;;;2.50;85.70;;;1.12;81.57;95642.44;4030388;34;20295;-84
2021/12/27 06:07:10;;;;;;;5.95;3.75;;;2.50;85.70;;;1.11;81.42;95640.78;4005770;34;20287;-84
2021/12/27 06:09:36;;;;;;;6.38;3.90;;;2.50;85.70;;;1.11;81.37;95643.47;4007493;34;20019;-85
2021/12/27 06:12:03;;;;;;;5.35;3.83;;;2.50;85.70;;;1.13;81.48;95646.78;4029820;34;20327;-84
2021/12/27 06:14:30;;;;;;;7.32;4.25;;;2.50;85.70;;;1.12;81.44;95647.03;3965818;34;20302;-83
2021/12/27 06:16:56;;;;;;;5.72;3.75;;;2.50;85.60;;;1.13;81.25;95652.19;4029934;34;20603;-84
2021/12/27 06:19:22;;;;;;;5.13;3.78;;;2.50;85.70;;;1.13;81.53;95651.38;4032333;34;20004;-84
2021/12/27 06:21:49;;;;;;;6.45;3.60;;;2.50;85.70;;;1.12;81.49;95647.84;3984417;34;20765;-84
2021/12/27 06:24:16;;;;;;;5.00;3.60;;;2.50;85.60;;;1.12;81.07;95642.44;4005003;34;20578;-84
2021/12/27 06:26:42;;;;;;;5.20;3.28;;;2.50;85.60;;;1.14;81.07;95648.44;4005351;34;20305;-84
2021/12/27 06:29:12;;;;;;;6.40;3.55;;;2.50;85.50;;;1.13;81.61;95652.19;4027350;34;20012;-85
2021/12/27 06:31:38;;;;;;;5.30;3.55;;;2.50;85.60;;;1.13;80.98;95656.75;4031724;34;20294;-83
2021/12/27 06:34:10;;;;;;;9.15;3.88;;;2.50;85.60;;;1.13;81.36;95660.25;3988465;34;19996;-84
2021/12/27 06:36:37;;;;;;;5.90;3.33;;;2.50;85.50;;;1.13;81.08;95660.25;4032639;34;20309;-84
2021/12/27 06:39:04;;;;;;;5.10;3.47;;;2.50;85.50;;;1.15;81.43;95660.06;3988964;34;20090;-84
2021/12/27 06:41:30;;;;;;;5.97;3.40;;;2.50;85.50;;;1.15;81.18;95651.97;4054093;34;20035;-84
2021/12/27 06:43:57;;;;;;;6.57;3.97;;;2.50;85.50;;;1.15;81.24;95655.47;4031782;34;20548;-84
2021/12/27 06:46:23;;;;;;;5.30;3.65;;;2.50;85.40;;;1.14;81.33;95651.13;3990431;34;20067;-84
2021/12/27 06:48:49;;;;;;;7.05;4.00;;;2.50;85.50;;;1.15;81.01;95651.97;4012987;34;20307;-85
2021/12/27 06:51:16;;;;;;;5.28;3.30;;;2.50;85.50;;;1.14;81.23;95645.75;4012941;34;20301;-83
2021/12/27 06:53:42;;;;;;;5.63;4.32;;;2.50;85.60;;;1.16;81.37;95642.84;4039709;34;20054;-83
2021/12/27 06:56:08;;;;;;;6.30;3.47;;;2.50;85.60;;;1.16;81.35;95634.75;4059554;34;20083;-83
2021/12/27 06:58:35;;;;;;;6.38;3.85;;;2.50;85.70;;;1.16;81.54;95638.25;3987800;34;20347;-82
2021/12/27 07:01:01;;;;;;;6.45;4.03;;;2.50;85.80;;;1.16;81.32;95649.03;3970760;34;20520;-83
2021/12/27 07:03:27;;;;;;;6.07;3.45;;;2.50;85.80;;;1.16;81.46;95648.22;4037266;34;20134;-84
2021/12/27 07:05:54;;;;;;;5.07;3.65;;;2.50;85.80;;;1.17;81.55;95642.59;3999936;34;20649;-83
2021/12/27 07:08:22;;;;;;;5.78;3.85;;;2.50;85.70;;;1.16;81.22;95640.13;4014579;34;20036;-84
2021/12/27 07:10:49;;;;;;;6.47;3.80;;;2.50;85.70;;;1.17;81.34;95637.22;4038867;34;20276;-84
2021/12/27 07:13:16;;;;;;;5.47;3.63;;;2.50;85.80;;;1.17;81.39;95629.13;4019033;34;20287;-83
2021/12/27 07:15:42;;;;;;;6.05;3.88;;;2.50;85.70;;;1.17;81.31;95623.72;4013493;34;20051;-84
2021/12/27 07:18:10;;;;;;;5.47;3.80;;;2.50;85.70;;;1.19;81.37;95627.03;4035211;34;20313;-83
2021/12/27 07:20:36;;;;;;;5.30;3.67;;;2.50;85.70;;;1.19;81.38;95631.59;4057144;34;20005;-83
2021/12/27 07:23:04;;;;;;;6.07;3.67;;;2.50;85.60;;;1.18;81.15;95630.78;4035389;34;20298;-84
2021/12/27 07:25:31;;;;;;;5.88;3.90;;;2.60;85.60;;;1.19;81.23;95632.41;4034384;34;20599;-84
2021/12/27 07:27:57;;;;;;;6.07;3.78;;;2.60;85.60;;;1.19;81.09;95632.41;4035288;34;20012;-83
2021/12/27 07:30:23;;;;;;;5.95;3.88;;;2.50;85.60;;;1.20;81.34;95627.84;4035090;34;20012;-84
2021/12/27 07:32:50;;;;;;;7.05;3.83;;;2.60;85.60;;;1.21;81.22;95622.25;4081446;34;20317;-84
2021/12/27 07:35:16;;;;;;;6.47;3.80;;;2.60;85.60;;;1.22;81.33;95623.88;4038575;34;20001;-84
2021/12/27 07:37:43;;;;;;;6.25;3.78;;;2.60;85.50;;;1.23;81.04;95617.41;3996596;34;20320;-84
2021/12/27 07:40:11;;;;;;;5.32;3.20;;;2.60;85.60;;;1.24;81.35;95618.25;3996522;34;20276;-83
2021/12/27 07:42:37;;;;;;;5.57;3.97;;;2.60;85.40;;;1.24;81.08;95612.88;4013390;34;20289;-83
2021/12/27 07:45:04;;;;;;;5.90;3.50;;;2.60;85.40;;;1.23;81.32;95606.63;4013723;34;20296;-84
2021/12/27 07:47:31;;;;;;;6.55;4.15;;;2.60;85.40;;;1.24;80.99;95607.47;4013632;34;20325;-83
2021/12/27 07:49:57;;;;;;;6.18;4.10;;;2.60;85.40;;;1.25;80.96;95602.88;4013127;34;19989;-83
2021/12/27 07:52:23;;;;;;;5.25;3.78;;;2.60;85.40;;;1.25;80.89;95605.59;4013362;34;20037;-83
2021/12/27 07:54:49;;;;;;;5.20;3.55;;;2.60;85.30;;;1.26;80.96;95607.22;4014438;34;20343;-84
2021/12/27 07:57:16;;;;;;;5.55;3.95;;;2.60;85.30;;;1.26;81.32;95609.94;4015984;34;20290;-84
2021/12/27 07:59:42;;;;;;;5.00;3.38;;;2.60;86.20;;;1.25;80.93;95602.88;4036742;34;20009;-84
2021/12/27 08:02:13;;;;;;;5.82;3.72;;;2.60;85.20;;;1.27;80.70;95611.59;4016209;34;20197;-83
2021/12/27 08:04:40;;;;;;;5.40;3.35;;;2.60;85.20;;;1.26;81.06;95605.38;4017040;34;20304;-83
2021/12/27 08:07:06;;;;;;;6.03;3.70;;;2.60;85.30;;;1.26;81.18;95588.38;4020644;34;20071;-83
2021/12/27 08:09:33;;;;;;;5.38;3.58;;;2.60;85.10;;;1.27;80.88;95607.03;3999042;34;20165;-83
2021/12/27 08:11:59;;;;;;;5.75;3.47;;;2.60;85.20;;;1.29;81.10;95609.50;4064604;34;20014;-83
2021/12/27 08:14:25;;;;;;;6.93;3.92;;;2.60;85.10;;;1.30;81.10;95605.75;3998746;34;20326;-83
2021/12/27 08:16:52;;;;;;;5.30;3.40;;;2.70;85.10;;;1.32;80.93;95609.03;4016867;34;20302;-84
2021/12/27 08:19:18;;;;;;;7.63;3.42;;;2.60;85.10;;;1.31;80.78;95619.00;4037012;34;20001;-83
2021/12/27 08:21:44;;;;;;;5.35;3.78;;;2.70;85.10;;;1.31;80.84;95619.00;3973643;34;20015;-83
2021/12/27 08:24:11;;;;;;;5.40;3.40;;;2.70;85.10;;;1.31;80.55;95608.19;3994244;34;20308;-84
2021/12/27 08:26:37;;;;;;;6.07;3.38;;;2.70;85.10;;;1.32;80.73;95609.03;4038357;34;20008;-84
2021/12/27 08:29:07;;;;;;;5.85;3.88;;;2.70;85.00;;;1.32;81.08;95619.81;3994842;34;20339;-83
2021/12/27 08:31:34;;;;;;;5.32;3.67;;;2.70;85.10;;;1.32;80.57;95603.66;3973330;34;20300;-84
2021/12/27 08:34:00;;;;;;;4.97;3.80;;;2.70;85.10;;;1.32;80.67;95601.75;4016726;34;20301;-83
2021/12/27 08:36:26;;;;;;;5.93;4.30;;;2.70;85.10;;;1.33;80.83;95599.91;4039890;34;20028;-84
2021/12/27 08:38:53;;;;;;;6.45;4.18;;;2.70;85.10;;;1.30;80.74;95589.56;4037559;34;20351;-83
2021/12/27 08:41:19;;;;;;;5.57;3.95;;;2.70;85.10;;;1.31;80.60;95596.59;4018696;34;20011;-83
2021/12/27 08:43:46;;;;;;;6.72;4.25;;;2.70;85.10;;;1.31;80.81;95591.22;4018821;34;20560;-83
2021/12/27 08:46:12;;;;;;;5.75;4.03;;;2.70;85.10;;;1.32;80.81;95587.47;4018187;34;20012;-83
2021/12/27 08:48:40;;;;;;;5.60;3.80;;;2.70;85.10;;;1.31;81.02;95575.84;4020206;34;20320;-84
2021/12/27 08:51:06;;;;;;;6.03;3.88;;;2.70;85.10;;;1.32;80.81;95582.06;4043403;34;19996;-84
2021/12/27 08:53:32;;;;;;;5.72;3.67;;;2.70;85.00;;;1.30;81.41;95576.88;4019326;34;20004;-83
2021/12/27 08:55:59;;;;;;;6.70;4.30;;;2.70;85.20;;;1.31;80.88;95575.03;4017921;34;20330;-84
2021/12/27 08:58:25;;;;;;;7.60;4.32;;;2.70;85.20;;;1.30;80.68;95568.81;4020346;34;19989;-83
2021/12/27 09:00:51;;;;;;;6.55;4.25;;;2.70;85.20;;;1.30;80.58;95566.09;4017934;34;20000;-83
2021/12/27 09:03:18;;;;;;;6.10;3.88;;;2.70;85.10;;;1.31;81.08;95548.06;4015647;34;20659;-84
2021/12/27 09:05:44;;;;;;;4.22;3.40;;;2.70;85.10;;;1.31;80.50;95537.28;4011997;34;20353;-83
2021/12/27 09:08:10;;;;;;;5.90;3.90;;;2.70;85.10;;;1.30;81.00;95532.94;4009634;34;20009;-84
2021/12/27 09:10:37;;;;;;;6.95;4.85;;;2.70;85.20;;;1.29;81.24;95512.41;4008981;34;20673;-83
2021/12/27 09:13:03;;;;;;;6.13;4.20;;;2.70;85.40;;;1.30;81.22;95514.06;4009844;34;20306;-83
2021/12/27 09:15:30;;;;;;;6.68;4.20;;;2.70;85.20;;;1.29;81.21;95507.84;4030562;34;20017;-83
2021/12/27 09:17:56;;;;;;;6.38;4.57;;;2.70;85.20;;;1.30;81.21;95509.47;4009972;34;20607;-84
2021/12/27 09:20:25;;;;;;;7.10;4.30;;;2.70;85.20;;;1.30;80.74;95508.66;4007325;34;20644;-84
2021/12/27 09:22:51;;;;;;;7.25;4.18;;;2.70;85.40;;;1.29;80.69;95507.84;4012412;34;20024;-84
2021/12/27 09:25:17;;;;;;;6.65;4.18;;;2.70;85.20;;;1.30;80.89;95509.47;4028108;34;20670;-83
2021/12/27 09:27:44;;;;;;;7.28;4.57;;;2.70;85.20;;;1.30;80.84;95509.47;4006101;34;20376;-83
2021/12/27 09:30:11;;;;;;;6.07;4.18;;;2.70;85.20;;;1.30;80.75;95506.78;4006436;34;20694;-83
2021/12/27 09:32:37;;;;;;;7.35;4.90;;;2.60;85.00;;;1.29;81.14;95509.72;4006094;34;20739;-83
2021/12/27 09:35:05;;;;;;;6.38;4.20;;;2.70;85.10;;;1.31;80.96;95513.00;3984065;34;20008;-83
2021/12/27 09:37:31;;;;;;;6.30;4.35;;;2.70;85.30;;;1.31;81.15;95515.72;3985255;34;20585;-84
2021/12/27 09:39:57;;;;;;;5.65;3.92;;;2.70;85.40;;;1.30;81.29;95508.66;3984331;34;20013;-83
2021/12/27 09:42:25;;;;;;;6.40;4.00;;;2.60;85.30;;;1.30;80.82;95504.09;3984768;34;20316;-83
2021/12/27 09:44:53;;;;;;;5.65;3.85;;;2.70;85.40;;;1.28;80.80;95506.22;3965312;34;20260;-84
2021/12/27 09:47:20;;;;;;;7.75;4.50;;;2.60;85.30;;;1.28;81.34;95494.59;4029806;34;20145;-84
2021/12/27 09:49:46;;;;;;;6.93;4.47;;;2.60;85.20;;;1.28;81.15;95491.91;3987147;34;20214;-83
2021/12/27 09:52:14;;;;;;;7.00;4.38;;;2.60;85.40;;;1.30;81.03;95508.66;4009069;34;19993;-83
2021/12/27 09:54:41;;;;;;;7.43;4.70;;;2.60;85.40;;;1.28;80.98;95510.78;4008497;34;20322;-84
2021/12/27 09:57:08;;;;;;;6.18;3.65;;;2.60;85.40;;;1.28;80.98;95519.69;3986953;34;20343;-84
2021/12/27 09:59:35;;;;;;;6.55;4.80;;;2.70;85.50;;;1.29;81.40;95528.59;4011034;34;20302;-83
2021/12/27 10:02:04;;;;;;;6.60;4.53;;;2.60;85.40;;;1.29;81.31;95532.09;4015106;34;20015;-84
2021/12/27 10:04:32;;;;;;;5.95;3.85;;;2.60;85.40;;;1.28;81.27;95533.19;3989712;34;20108;-83
2021/12/27 10:07:00;;;;;;;6.32;4.07;;;2.60;85.40;;;1.29;81.11;95534.00;4010761;34;20315;-84
2021/12/27 10:09:27;;;;;;;7.53;5.55;;;2.60;85.40;;;1.28;81.43;95540.44;4015527;34;20328;-84
2021/12/27 10:11:54;;;;;;;8.13;5.20;;;2.60;85.50;;;1.28;80.92;95540.44;4015279;34;20279;-84
2021/12/27 10:14:24;;;;;;;6.93;5.18;;;2.60;85.40;;;1.27;80.93;95541.47;3992912;34;20055;-84
2021/12/27 10:17:10;;;;;;;9.07;5.10;;;2.60;85.30;;;1.29;80.80;95544.78;4015297;34;20000;-83
2021/12/27 10:19:40;;;;;;;7.40;4.43;;;2.60;85.30;;;1.29;81.10;95536.69;4005024;34;20315;-83
2021/12/27 10:22:11;;;;;;;7.03;4.88;;;2.60;85.40;;;1.30;81.04;95538.34;4014896;34;20000;-83
2021/12/27 10:24:38;;;;;;;7.70;4.65;;;2.60;85.40;;;1.29;81.37;95534.00;3993799;34;20110;-84
2021/12/27 10:27:05;;;;;;;7.53;4.68;;;2.60;85.40;;;1.29;81.22;95531.28;3998440;34;20837;-83
2021/12/27 10:29:40;;;;;;;6.90;5.30;;;2.60;85.40;;;1.28;81.23;95521.56;4041257;34;20008;-84
2021/12/27 10:32:11;;;;;;;7.65;4.43;;;2.60;85.30;;;1.29;81.55;95512.41;4042035;34;20303;-84
2021/12/27 10:34:46;;;;;;;7.80;4.85;;;2.60;85.40;;;1.28;80.88;95494.59;4059442;34;20149;-84